createdAt,value
2018-06-21T00:00:22.968Z,22.25
2018-06-21T00:01:22.973Z,22.23
2018-06-21T00:02:22.981Z,22.17
2018-06-21T00:03:22.985Z,22.14
2018-06-21T00:04:22.991Z,22.07
2018-06-21T00:05:22.996Z,22.08
2018-06-21T00:06:23.002Z,22.13
2018-06-21T00:07:23.009Z,21.98
2018-06-21T00:08:23.014Z,21.91
2018-06-21T00:09:23.012Z,21.98
2018-06-21T00:10:23.027Z,22.00
2018-06-21T00:11:23.029Z,22.06
2018-06-21T00:12:23.038Z,21.99
2018-06-21T00:13:23.039Z,22.00
2018-06-21T00:14:23.048Z,21.88
2018-06-21T00:15:23.053Z,21.98
2018-06-21T00:16:23.058Z,21.91
2018-06-21T00:17:23.059Z,21.99
2018-06-21T00:18:23.111Z,21.99
2018-06-21T00:19:23.071Z,21.95
2018-06-21T00:20:23.079Z,22.00
2018-06-21T00:21:23.085Z,21.92
2018-06-21T00:22:23.092Z,21.92
2018-06-21T00:23:23.100Z,21.85
2018-06-21T00:24:23.104Z,21.95
2018-06-21T00:25:23.112Z,21.83
2018-06-21T00:26:23.116Z,21.82
2018-06-21T00:27:23.120Z,21.76
2018-06-21T00:28:23.126Z,21.79
2018-06-21T00:29:23.183Z,21.80
2018-06-21T00:30:23.138Z,21.69
2018-06-21T00:31:23.142Z,21.67
2018-06-21T00:32:23.148Z,21.61
2018-06-21T00:33:23.153Z,21.60
2018-06-21T00:34:23.158Z,21.67
2018-06-21T00:35:23.164Z,21.55
2018-06-21T00:36:23.173Z,21.60
2018-06-21T00:37:23.178Z,21.52
2018-06-21T00:38:23.180Z,21.43
2018-06-21T00:39:23.186Z,21.37
2018-06-21T00:40:23.192Z,21.33
2018-06-21T00:41:23.190Z,21.40
2018-06-21T00:42:23.202Z,21.43
2018-06-21T00:43:23.209Z,21.39
2018-06-21T00:44:23.213Z,21.39
2018-06-21T00:45:23.216Z,21.33
2018-06-21T00:46:23.225Z,21.30
2018-06-21T00:47:23.229Z,21.35
2018-06-21T00:48:23.234Z,21.36
2018-06-21T00:49:23.246Z,21.33
2018-06-21T00:50:23.245Z,21.27
2018-06-21T00:51:23.249Z,21.21
2018-06-21T00:52:23.253Z,21.21
2018-06-21T00:53:23.261Z,21.27
2018-06-21T00:54:23.269Z,21.30
2018-06-21T00:55:23.271Z,21.33
2018-06-21T00:56:23.276Z,21.35
2018-06-21T00:57:23.280Z,21.35
2018-06-21T00:58:23.287Z,21.25
2018-06-21T00:59:23.290Z,21.27
2018-06-21T01:00:23.296Z,21.27
2018-06-21T01:01:23.304Z,21.29
2018-06-21T01:02:23.307Z,21.24
2018-06-21T01:03:23.312Z,21.25
2018-06-21T01:04:23.320Z,21.29
2018-06-21T01:05:23.317Z,21.29
2018-06-21T01:06:23.327Z,21.22
2018-06-21T01:07:23.330Z,21.09
2018-06-21T01:08:23.336Z,21.07
2018-06-21T01:09:23.337Z,21.05
2018-06-21T01:10:23.347Z,21.06
2018-06-21T01:11:23.351Z,21.03
2018-06-21T01:12:23.356Z,20.93
2018-06-21T01:13:23.364Z,20.93
2018-06-21T01:14:23.366Z,20.93
2018-06-21T01:15:23.374Z,20.99
2018-06-21T01:16:23.377Z,20.92
2018-06-21T01:17:23.384Z,20.95
2018-06-21T01:18:23.390Z,20.97
2018-06-21T01:19:23.393Z,20.96
2018-06-21T01:20:23.400Z,20.88
2018-06-21T01:21:23.404Z,20.88
2018-06-21T01:22:23.408Z,20.93
2018-06-21T01:23:23.415Z,20.93
2018-06-21T01:24:23.417Z,20.92
2018-06-21T01:25:23.426Z,20.96
2018-06-21T01:26:23.428Z,20.88
2018-06-21T01:27:23.435Z,20.93
2018-06-21T01:28:23.437Z,20.93
2018-06-21T01:29:23.441Z,20.93
2018-06-21T01:30:23.455Z,20.92
2018-06-21T01:31:23.450Z,20.81
2018-06-21T01:32:23.460Z,20.75
2018-06-21T01:33:23.461Z,20.75
2018-06-21T01:34:23.468Z,20.82
2018-06-21T01:35:23.471Z,20.85
2018-06-21T01:36:23.475Z,20.74
2018-06-21T01:37:23.480Z,20.81
2018-06-21T01:38:23.491Z,20.81
2018-06-21T01:39:23.493Z,20.75
2018-06-21T01:40:23.495Z,20.75
2018-06-21T01:41:23.501Z,20.75
2018-06-21T01:42:23.507Z,20.77
2018-06-21T01:43:23.511Z,20.78
2018-06-21T01:44:23.509Z,20.78
2018-06-21T01:45:23.520Z,20.78
2018-06-21T01:46:23.522Z,20.77
2018-06-21T01:47:23.531Z,20.67
2018-06-21T01:48:23.533Z,20.59
2018-06-21T01:49:23.544Z,20.51
2018-06-21T01:50:23.538Z,20.50
2018-06-21T01:51:23.551Z,20.60
2018-06-21T01:52:23.551Z,20.58
2018-06-21T01:53:23.556Z,20.51
2018-06-21T01:54:23.564Z,20.43
2018-06-21T01:55:23.569Z,20.44
2018-06-21T01:56:23.571Z,20.40
2018-06-21T01:57:23.577Z,20.40
2018-06-21T01:58:23.584Z,20.39
2018-06-21T01:59:23.590Z,20.40
2018-06-21T02:00:23.591Z,20.34
2018-06-21T02:01:23.593Z,20.29
2018-06-21T02:02:23.601Z,20.39
2018-06-21T02:03:23.601Z,20.34
2018-06-21T02:04:23.609Z,20.36
2018-06-21T02:05:23.615Z,20.32
2018-06-21T02:06:23.619Z,20.31
2018-06-21T02:07:23.625Z,20.31
2018-06-21T02:08:23.630Z,20.24
2018-06-21T02:09:23.638Z,20.21
2018-06-21T02:10:23.641Z,20.22
2018-06-21T02:11:23.645Z,20.18
2018-06-21T02:12:23.648Z,20.21
2018-06-21T02:13:23.651Z,20.19
2018-06-21T02:14:23.653Z,20.21
2018-06-21T02:15:23.662Z,20.18
2018-06-21T02:16:23.665Z,20.19
2018-06-21T02:17:23.670Z,20.21
2018-06-21T02:18:23.676Z,20.24
2018-06-21T02:19:23.677Z,20.04
2018-06-21T02:20:23.683Z,20.14
2018-06-21T02:21:23.687Z,20.19
2018-06-21T02:22:23.696Z,20.16
2018-06-21T02:23:23.697Z,20.13
2018-06-21T02:24:23.694Z,20.02
2018-06-21T02:25:23.704Z,20.13
2018-06-21T02:26:23.710Z,19.99
2018-06-21T02:27:23.717Z,19.92
2018-06-21T02:28:23.715Z,19.96
2018-06-21T02:29:23.723Z,19.94
2018-06-21T02:30:23.730Z,19.92
2018-06-21T02:31:23.732Z,19.99
2018-06-21T02:32:23.739Z,19.96
2018-06-21T02:33:23.748Z,19.96
2018-06-21T02:34:23.781Z,19.91
2018-06-21T02:35:23.752Z,19.86
2018-06-21T02:36:23.751Z,19.91
2018-06-21T02:37:23.758Z,19.88
2018-06-21T02:38:23.764Z,19.82
2018-06-21T02:39:23.770Z,19.81
2018-06-21T02:40:23.775Z,19.81
2018-06-21T02:41:23.775Z,19.81
2018-06-21T02:42:23.780Z,19.77
2018-06-21T02:43:23.788Z,19.86
2018-06-21T02:44:23.789Z,19.88
2018-06-21T02:45:23.793Z,19.77
2018-06-21T02:46:23.805Z,19.85
2018-06-21T02:47:23.802Z,19.82
2018-06-21T02:48:23.807Z,19.85
2018-06-21T02:49:23.819Z,19.81
2018-06-21T02:50:23.817Z,19.86
2018-06-21T02:51:23.819Z,19.81
2018-06-21T02:52:23.823Z,19.82
2018-06-21T02:53:23.827Z,19.79
2018-06-21T02:54:23.831Z,19.73
2018-06-21T02:55:23.828Z,19.71
2018-06-21T02:56:23.834Z,19.85
2018-06-21T02:57:23.844Z,19.82
2018-06-21T02:58:23.846Z,19.84
2018-06-21T02:59:23.858Z,19.74
2018-06-21T03:00:23.855Z,19.84
2018-06-21T03:01:23.855Z,19.81
2018-06-21T03:02:23.864Z,19.88
2018-06-21T03:03:23.871Z,19.86
2018-06-21T03:04:23.877Z,19.84
2018-06-21T03:05:23.879Z,19.76
2018-06-21T03:06:23.884Z,19.84
2018-06-21T03:07:23.887Z,19.84
2018-06-21T03:08:23.893Z,19.73
2018-06-21T03:09:23.896Z,19.70
2018-06-21T03:10:23.895Z,19.81
2018-06-21T03:11:23.906Z,19.69
2018-06-21T03:12:23.906Z,19.73
2018-06-21T03:13:23.912Z,19.88
2018-06-21T03:14:23.917Z,19.82
2018-06-21T03:15:23.920Z,19.73
2018-06-21T03:16:23.923Z,19.70
2018-06-21T03:17:23.928Z,19.79
2018-06-21T03:18:23.934Z,19.71
2018-06-21T03:19:23.936Z,19.74
2018-06-21T03:20:23.938Z,19.85
2018-06-21T03:21:23.945Z,19.85
2018-06-21T03:22:23.949Z,19.84
2018-06-21T03:23:23.951Z,19.84
2018-06-21T03:24:23.961Z,19.82
2018-06-21T03:25:23.957Z,19.82
2018-06-21T03:26:23.961Z,19.79
2018-06-21T03:27:23.966Z,19.85
2018-06-21T03:28:23.972Z,19.77
2018-06-21T03:29:23.981Z,19.82
2018-06-21T03:30:23.988Z,19.84
2018-06-21T03:31:23.990Z,19.88
2018-06-21T03:32:23.986Z,19.81
2018-06-21T03:33:24.002Z,19.74
2018-06-21T03:34:24.005Z,19.79
2018-06-21T03:35:24.007Z,19.85
2018-06-21T03:36:24.007Z,19.81
2018-06-21T03:37:24.009Z,19.94
2018-06-21T03:38:24.021Z,19.89
2018-06-21T03:39:24.020Z,19.81
2018-06-21T03:40:24.025Z,19.84
2018-06-21T03:41:24.029Z,19.88
2018-06-21T03:42:24.032Z,19.86
2018-06-21T03:43:24.039Z,19.95
2018-06-21T03:44:24.041Z,19.94
2018-06-21T03:45:24.049Z,19.95
2018-06-21T03:46:24.052Z,19.95
2018-06-21T03:47:24.063Z,19.95
2018-06-21T03:48:24.056Z,20.00
2018-06-21T03:49:24.062Z,20.04
2018-06-21T03:50:24.068Z,20.06
2018-06-21T03:51:24.071Z,20.06
2018-06-21T03:52:24.075Z,19.96
2018-06-21T03:53:24.082Z,20.09
2018-06-21T03:54:24.084Z,20.16
2018-06-21T03:55:24.093Z,20.04
2018-06-21T03:56:24.092Z,20.03
2018-06-21T03:57:24.097Z,20.03
2018-06-21T03:58:24.095Z,20.03
2018-06-21T03:59:24.104Z,20.07
2018-06-21T04:00:24.105Z,20.16
2018-06-21T04:01:24.114Z,20.10
2018-06-21T04:02:24.119Z,20.07
2018-06-21T04:03:24.123Z,20.07
2018-06-21T04:04:24.121Z,20.09
2018-06-21T04:05:24.134Z,20.04
2018-06-21T04:06:24.135Z,20.10
2018-06-21T04:07:24.134Z,20.13
2018-06-21T04:08:24.194Z,20.10
2018-06-21T04:09:24.144Z,20.10
2018-06-21T04:10:24.152Z,20.13
2018-06-21T04:11:24.160Z,20.09
2018-06-21T04:12:24.160Z,20.04
2018-06-21T04:13:24.166Z,20.16
2018-06-21T04:14:24.169Z,20.14
2018-06-21T04:15:24.173Z,20.14
2018-06-21T04:16:24.177Z,20.19
2018-06-21T04:17:24.221Z,20.22
2018-06-21T04:18:24.189Z,20.22
2018-06-21T04:19:24.193Z,20.24
2018-06-21T04:20:24.197Z,20.21
2018-06-21T04:21:24.202Z,20.29
2018-06-21T04:22:24.204Z,20.28
2018-06-21T04:23:24.209Z,20.24
2018-06-21T04:24:24.214Z,20.32
2018-06-21T04:25:24.216Z,20.26
2018-06-21T04:26:24.224Z,20.31
2018-06-21T04:27:24.225Z,20.26
2018-06-21T04:28:24.230Z,20.40
2018-06-21T04:29:24.237Z,20.43
2018-06-21T04:30:24.240Z,20.43
2018-06-21T04:31:24.246Z,20.43
2018-06-21T04:32:24.282Z,20.44
2018-06-21T04:33:24.261Z,20.48
2018-06-21T04:34:24.258Z,20.55
2018-06-21T04:35:24.267Z,20.56
2018-06-21T04:36:24.265Z,20.62
2018-06-21T04:37:24.271Z,20.63
2018-06-21T04:38:24.278Z,20.63
2018-06-21T04:39:24.285Z,20.58
2018-06-21T04:40:24.286Z,20.66
2018-06-21T04:41:24.288Z,20.70
2018-06-21T04:42:24.296Z,20.77
2018-06-21T04:43:24.299Z,20.84
2018-06-21T04:44:24.298Z,20.77
2018-06-21T04:45:24.303Z,20.84
2018-06-21T04:46:24.312Z,20.85
2018-06-21T04:47:24.318Z,20.74
2018-06-21T04:48:24.322Z,20.87
2018-06-21T04:49:24.332Z,20.90
2018-06-21T04:50:24.337Z,21.03
2018-06-21T04:51:24.336Z,20.92
2018-06-21T04:52:24.341Z,20.90
2018-06-21T04:53:24.345Z,21.00
2018-06-21T04:54:24.349Z,20.92
2018-06-21T04:55:24.356Z,20.95
2018-06-21T04:56:24.360Z,21.02
2018-06-21T04:57:24.365Z,21.09
2018-06-21T04:58:24.370Z,21.06
2018-06-21T04:59:24.376Z,21.17
2018-06-21T05:00:24.386Z,21.11
2018-06-21T05:01:24.385Z,21.12
2018-06-21T05:02:24.393Z,21.17
2018-06-21T05:03:24.403Z,21.20
2018-06-21T05:04:24.399Z,21.15
2018-06-21T05:05:24.400Z,21.24
2018-06-21T05:06:24.474Z,21.36
2018-06-21T05:07:24.416Z,21.35
2018-06-21T05:08:24.420Z,21.36
2018-06-21T05:09:24.430Z,21.33
2018-06-21T05:10:24.431Z,21.40
2018-06-21T05:11:24.435Z,21.36
2018-06-21T05:12:24.440Z,21.52
2018-06-21T05:13:24.448Z,21.50
2018-06-21T05:14:24.452Z,21.51
2018-06-21T05:15:24.456Z,21.60
2018-06-21T05:16:24.456Z,21.66
2018-06-21T05:17:24.468Z,21.61
2018-06-21T05:18:24.470Z,21.70
2018-06-21T05:19:24.478Z,21.67
2018-06-21T05:20:24.485Z,21.69
2018-06-21T05:21:24.497Z,21.76
2018-06-21T05:22:24.499Z,21.79
2018-06-21T05:23:24.500Z,21.89
2018-06-21T05:24:24.505Z,21.88
2018-06-21T05:25:24.509Z,21.99
2018-06-21T05:26:24.514Z,21.89
2018-06-21T05:27:24.520Z,21.99
2018-06-21T05:28:24.526Z,21.95
2018-06-21T05:29:24.528Z,22.02
2018-06-21T05:30:24.543Z,21.99
2018-06-21T05:31:24.540Z,22.11
2018-06-21T05:32:24.543Z,22.14
2018-06-21T05:33:24.553Z,22.14
2018-06-21T05:34:24.560Z,22.15
2018-06-21T05:35:24.565Z,22.18
2018-06-21T05:36:24.571Z,22.28
2018-06-21T05:37:24.634Z,22.28
2018-06-21T05:38:24.586Z,22.36
2018-06-21T05:39:24.588Z,22.38
2018-06-21T05:40:24.594Z,22.43
2018-06-21T05:41:24.599Z,22.41
2018-06-21T05:42:24.606Z,22.53
2018-06-21T05:43:24.613Z,22.50
2018-06-21T05:44:24.644Z,22.59
2018-06-21T05:45:24.623Z,22.59
2018-06-21T05:46:24.631Z,22.63
2018-06-21T05:47:24.635Z,22.69
2018-06-21T05:48:24.640Z,22.72
2018-06-21T05:49:24.647Z,22.69
2018-06-21T05:50:24.653Z,22.83
2018-06-21T05:51:24.658Z,22.70
2018-06-21T05:52:24.665Z,22.84
2018-06-21T05:53:24.673Z,22.88
2018-06-21T05:54:24.677Z,22.93
2018-06-21T05:55:24.683Z,22.93
2018-06-21T05:56:24.683Z,23.02
2018-06-21T05:57:24.698Z,23.12
2018-06-21T05:58:24.695Z,23.09
2018-06-21T05:59:24.704Z,23.15
2018-06-21T06:00:24.714Z,23.24
2018-06-21T06:01:24.719Z,23.15
2018-06-21T06:02:24.726Z,23.27
2018-06-21T06:03:24.735Z,23.39
2018-06-21T06:04:24.741Z,23.39
2018-06-21T06:05:24.745Z,23.40
2018-06-21T06:06:24.754Z,23.50
2018-06-21T06:07:24.760Z,23.62
2018-06-21T06:08:24.817Z,23.77
2018-06-21T06:09:24.773Z,23.78
2018-06-21T06:10:24.779Z,23.87
2018-06-21T06:11:24.802Z,23.92
2018-06-21T06:12:24.792Z,23.96
2018-06-21T06:13:24.797Z,24.02
2018-06-21T06:14:24.801Z,23.99
2018-06-21T06:15:24.814Z,24.02
2018-06-21T06:16:24.818Z,24.17
2018-06-21T06:17:24.828Z,24.14
2018-06-21T06:18:24.835Z,24.16
2018-06-21T06:19:24.841Z,24.23
2018-06-21T06:20:24.841Z,24.20
2018-06-21T06:21:24.851Z,24.26
2018-06-21T06:22:24.855Z,24.33
2018-06-21T06:23:24.870Z,24.47
2018-06-21T06:24:24.872Z,24.45
2018-06-21T06:25:24.874Z,24.55
2018-06-21T06:26:24.883Z,24.58
2018-06-21T06:27:24.891Z,24.55
2018-06-21T06:28:24.902Z,24.65
2018-06-21T06:29:24.910Z,24.61
2018-06-21T06:30:24.916Z,24.76
2018-06-21T06:31:24.926Z,24.77
2018-06-21T06:32:24.936Z,24.74
2018-06-21T06:33:24.938Z,24.99
2018-06-21T06:34:24.946Z,25.08
2018-06-21T06:35:24.954Z,25.17
2018-06-21T06:36:24.961Z,25.31
2018-06-21T06:37:24.968Z,25.32
2018-06-21T06:38:24.980Z,25.43
2018-06-21T06:39:24.984Z,25.31
2018-06-21T06:40:25.012Z,25.29
2018-06-21T06:41:25.000Z,25.25
2018-06-21T06:42:25.015Z,25.21
2018-06-21T06:43:25.019Z,25.16
2018-06-21T06:44:25.033Z,25.21
2018-06-21T06:45:25.032Z,25.13
2018-06-21T06:46:25.040Z,25.17
2018-06-21T06:47:25.052Z,25.26
2018-06-21T06:48:25.053Z,25.31
2018-06-21T06:49:25.061Z,25.38
2018-06-21T06:50:25.071Z,25.33
2018-06-21T06:51:25.076Z,25.48
2018-06-21T06:52:25.086Z,25.53
2018-06-21T06:53:25.094Z,25.51
2018-06-21T06:54:25.158Z,25.55
2018-06-21T06:55:25.113Z,25.73
2018-06-21T06:56:25.117Z,25.81
2018-06-21T06:57:25.125Z,25.88
2018-06-21T06:58:25.133Z,26.02
2018-06-21T06:59:25.143Z,26.18
2018-06-21T07:00:25.149Z,26.29
2018-06-21T07:01:25.160Z,26.25
2018-06-21T07:02:25.170Z,26.26
2018-06-21T07:03:25.175Z,26.33
2018-06-21T07:04:25.181Z,26.33
2018-06-21T07:05:25.193Z,26.28
2018-06-21T07:06:25.200Z,26.36
2018-06-21T07:07:25.209Z,26.40
2018-06-21T07:08:25.264Z,26.59
2018-06-21T07:09:25.218Z,26.75
2018-06-21T07:10:25.233Z,26.83
2018-06-21T07:11:25.242Z,26.85
2018-06-21T07:12:25.250Z,26.97
2018-06-21T07:13:25.258Z,26.95
2018-06-21T07:14:25.309Z,27.05
2018-06-21T07:15:25.275Z,27.03
2018-06-21T07:16:25.284Z,27.03
2018-06-21T07:17:25.298Z,27.05
2018-06-21T07:18:25.306Z,27.03
2018-06-21T07:19:25.313Z,27.10
2018-06-21T07:20:25.345Z,26.99
2018-06-21T07:21:25.325Z,27.00
2018-06-21T07:22:25.339Z,26.97
2018-06-21T07:23:25.350Z,26.92
2018-06-21T07:24:25.357Z,27.00
2018-06-21T07:25:25.367Z,26.88
2018-06-21T07:26:25.378Z,26.77
2018-06-21T07:27:25.385Z,26.77
2018-06-21T07:28:25.402Z,26.78
2018-06-21T07:29:25.402Z,26.85
2018-06-21T07:30:25.413Z,26.88
2018-06-21T07:31:25.420Z,26.89
2018-06-21T07:32:25.425Z,26.89
2018-06-21T07:33:25.475Z,26.90
2018-06-21T07:34:25.448Z,26.85
2018-06-21T07:35:25.457Z,26.81
2018-06-21T07:36:25.465Z,26.84
2018-06-21T07:37:25.472Z,26.92
2018-06-21T07:38:25.484Z,26.89
2018-06-21T07:39:25.494Z,26.88
2018-06-21T07:40:25.539Z,26.84
2018-06-21T07:41:25.511Z,26.84
2018-06-21T07:42:25.518Z,26.84
2018-06-21T07:43:25.529Z,26.74
2018-06-21T07:44:25.538Z,26.85
2018-06-21T07:45:25.541Z,26.88
2018-06-21T07:46:25.559Z,26.81
2018-06-21T07:47:25.565Z,26.85
2018-06-21T07:48:25.573Z,26.81
2018-06-21T07:49:25.580Z,26.77
2018-06-21T07:50:25.590Z,26.71
2018-06-21T07:51:25.604Z,26.73
2018-06-21T07:52:25.603Z,26.80
2018-06-21T07:53:25.619Z,26.90
2018-06-21T07:54:25.624Z,26.93
2018-06-21T07:55:25.639Z,26.99
2018-06-21T07:56:25.641Z,26.97
2018-06-21T07:57:25.654Z,26.88
2018-06-21T07:58:25.661Z,26.95
2018-06-21T07:59:25.668Z,26.97
2018-06-21T08:00:25.680Z,27.00
2018-06-21T08:01:25.690Z,27.12
2018-06-21T08:02:25.698Z,27.15
2018-06-21T08:03:25.701Z,27.20
2018-06-21T08:04:25.716Z,27.12
2018-06-21T08:05:25.723Z,27.10
2018-06-21T08:06:25.734Z,27.17
2018-06-21T08:07:25.743Z,27.17
2018-06-21T08:08:25.749Z,27.21
2018-06-21T08:09:25.758Z,27.27
2018-06-21T08:10:25.778Z,27.35
2018-06-21T08:11:25.777Z,27.15
2018-06-21T08:12:25.788Z,27.10
2018-06-21T08:13:25.794Z,27.10
2018-06-21T08:14:25.804Z,27.14
2018-06-21T08:15:25.825Z,27.17
2018-06-21T08:16:25.821Z,27.12
2018-06-21T08:17:25.829Z,27.18
2018-06-21T08:18:25.838Z,27.30
2018-06-21T08:19:25.850Z,27.21
2018-06-21T08:20:26.651Z,27.22
2018-06-21T08:21:25.863Z,27.18
2018-06-21T08:22:25.875Z,27.33
2018-06-21T08:23:25.877Z,27.36
2018-06-21T08:24:25.897Z,27.44
2018-06-21T08:25:25.900Z,27.49
2018-06-21T08:26:25.912Z,27.39
2018-06-21T08:27:25.919Z,27.60
2018-06-21T08:28:25.927Z,27.70
2018-06-21T08:29:25.931Z,27.71
2018-06-21T08:30:25.950Z,27.70
2018-06-21T08:31:25.966Z,27.77
2018-06-21T08:32:25.962Z,27.71
2018-06-21T08:33:25.984Z,27.70
2018-06-21T08:34:25.982Z,27.64
2018-06-21T08:35:25.992Z,27.52
2018-06-21T08:36:25.999Z,27.45
2018-06-21T08:37:26.010Z,27.45
2018-06-21T08:38:26.019Z,27.52
2018-06-21T08:39:26.031Z,27.54
2018-06-21T08:40:26.037Z,27.40
2018-06-21T08:41:26.044Z,27.42
2018-06-21T08:42:26.053Z,27.51
2018-06-21T08:43:26.064Z,27.58
2018-06-21T08:44:26.071Z,27.55
2018-06-21T08:45:26.079Z,27.52
2018-06-21T08:46:26.088Z,27.55
2018-06-21T08:47:26.099Z,27.59
2018-06-21T08:48:26.109Z,27.59
2018-06-21T08:49:26.118Z,27.67
2018-06-21T08:50:26.129Z,27.71
2018-06-21T08:51:26.135Z,27.78
2018-06-21T08:52:26.161Z,27.92
2018-06-21T08:53:26.158Z,27.83
2018-06-21T08:54:26.164Z,27.83
2018-06-21T08:55:26.175Z,27.98
2018-06-21T08:56:26.183Z,27.92
2018-06-21T08:57:26.190Z,27.89
2018-06-21T08:58:26.257Z,27.95
2018-06-21T08:59:26.204Z,27.98
2018-06-21T09:00:26.220Z,28.10
2018-06-21T09:01:26.232Z,28.17
2018-06-21T09:02:26.240Z,28.14
2018-06-21T09:03:26.248Z,28.17
2018-06-21T09:04:26.255Z,28.11
2018-06-21T09:05:26.265Z,28.17
2018-06-21T09:06:26.275Z,28.01
2018-06-21T09:07:26.284Z,27.98
2018-06-21T09:08:26.294Z,27.92
2018-06-21T09:09:26.305Z,28.01
2018-06-21T09:10:26.312Z,27.89
2018-06-21T09:11:26.324Z,27.83
2018-06-21T09:12:26.330Z,27.83
2018-06-21T09:13:26.337Z,27.92
2018-06-21T09:14:26.349Z,27.93
2018-06-21T09:15:26.448Z,27.89
2018-06-21T09:16:26.365Z,27.85
2018-06-21T09:17:26.378Z,27.89
2018-06-21T09:18:26.386Z,27.86
2018-06-21T09:19:26.397Z,27.92
2018-06-21T09:20:26.405Z,27.98
2018-06-21T09:21:26.416Z,27.98
2018-06-21T09:22:26.424Z,27.89
2018-06-21T09:23:26.434Z,28.02
2018-06-21T09:24:26.447Z,28.19
2018-06-21T09:25:26.453Z,28.27
2018-06-21T09:26:26.463Z,28.45
2018-06-21T09:27:26.470Z,28.51
2018-06-21T09:28:26.479Z,28.63
2018-06-21T09:29:26.488Z,28.59
2018-06-21T09:30:26.494Z,28.72
2018-06-21T09:31:26.508Z,28.76
2018-06-21T09:32:26.517Z,28.82
2018-06-21T09:33:26.527Z,28.93
2018-06-21T09:34:26.532Z,28.94
2018-06-21T09:35:26.548Z,28.76
2018-06-21T09:36:26.559Z,28.59
2018-06-21T09:37:26.567Z,28.59
2018-06-21T09:38:26.578Z,28.62
2018-06-21T09:39:26.586Z,28.72
2018-06-21T09:40:26.600Z,28.85
2018-06-21T09:41:26.607Z,28.67
2018-06-21T09:42:26.617Z,28.62
2018-06-21T09:43:26.625Z,28.49
2018-06-21T09:44:26.635Z,28.45
2018-06-21T09:45:26.647Z,28.74
2018-06-21T09:46:33.877Z,28.70
2018-06-21T09:47:26.665Z,28.75
2018-06-21T09:48:26.677Z,28.76
2018-06-21T09:49:26.682Z,28.63
2018-06-21T09:50:26.695Z,28.45
2018-06-21T09:51:26.700Z,28.59
2018-06-21T09:52:26.749Z,28.72
2018-06-21T09:53:26.724Z,28.74
2018-06-21T09:54:26.733Z,28.85
2018-06-21T09:55:26.745Z,28.86
2018-06-21T09:56:26.753Z,28.98
2018-06-21T09:57:26.762Z,29.04
2018-06-21T09:58:26.775Z,29.01
2018-06-21T09:59:26.783Z,29.10
2018-06-21T10:00:26.792Z,28.96
2018-06-21T10:01:26.803Z,28.93
2018-06-21T10:02:26.814Z,28.93
2018-06-21T10:03:26.822Z,28.98
2018-06-21T10:04:26.838Z,28.84
2018-06-21T10:05:26.843Z,28.94
2018-06-21T10:06:26.853Z,29.07
2018-06-21T10:07:26.865Z,29.24
2018-06-21T10:08:26.867Z,29.24
2018-06-21T10:09:26.882Z,29.14
2018-06-21T10:10:26.890Z,29.17
2018-06-21T10:11:26.908Z,29.10
2018-06-21T10:12:26.910Z,29.10
2018-06-21T10:13:26.924Z,29.13
2018-06-21T10:14:26.934Z,29.16
2018-06-21T10:15:26.944Z,29.16
2018-06-21T10:16:26.954Z,29.24
2018-06-21T10:17:26.967Z,29.12
2018-06-21T10:18:26.979Z,29.13
2018-06-21T10:19:26.989Z,29.23
2018-06-21T10:20:27.069Z,29.17
2018-06-21T10:21:27.010Z,29.13
2018-06-21T10:22:27.024Z,29.16
2018-06-21T10:23:27.031Z,28.96
2018-06-21T10:24:27.038Z,29.01
2018-06-21T10:25:27.047Z,29.01
2018-06-21T10:26:27.061Z,29.10
2018-06-21T10:27:27.072Z,29.22
2018-06-21T10:28:27.082Z,29.29
2018-06-21T10:29:27.092Z,29.35
2018-06-21T10:30:27.107Z,29.44
2018-06-21T10:31:27.114Z,29.29
2018-06-21T10:32:27.123Z,29.51
2018-06-21T10:33:27.133Z,29.53
2018-06-21T10:34:27.145Z,29.47
2018-06-21T10:35:27.157Z,29.35
2018-06-21T10:36:27.163Z,29.29
2018-06-21T10:37:27.176Z,29.24
2018-06-21T10:38:27.185Z,29.39
2018-06-21T10:39:27.196Z,29.36
2018-06-21T10:40:27.206Z,29.47
2018-06-21T10:41:27.218Z,29.54
2018-06-21T10:42:27.268Z,29.36
2018-06-21T10:43:27.234Z,29.32
2018-06-21T10:44:27.255Z,29.31
2018-06-21T10:45:27.259Z,29.47
2018-06-21T10:46:27.268Z,29.47
2018-06-21T10:47:27.284Z,29.56
2018-06-21T10:48:27.292Z,29.66
2018-06-21T10:49:27.301Z,29.87
2018-06-21T10:50:27.314Z,29.84
2018-06-21T10:51:27.324Z,29.71
2018-06-21T10:52:27.332Z,29.73
2018-06-21T10:53:27.352Z,29.94
2018-06-21T10:54:27.359Z,30.02
2018-06-21T10:55:27.364Z,29.97
2018-06-21T10:56:27.376Z,30.06
2018-06-21T10:57:27.388Z,29.94
2018-06-21T10:58:27.398Z,29.94
2018-06-21T10:59:27.412Z,30.05
2018-06-21T11:00:27.419Z,30.08
2018-06-21T11:01:27.431Z,29.93
2018-06-21T11:02:27.442Z,29.91
2018-06-21T11:03:27.457Z,29.71
2018-06-21T11:04:27.464Z,29.61
2018-06-21T11:05:27.476Z,29.44
2018-06-21T11:06:27.486Z,29.47
2018-06-21T11:07:27.492Z,29.49
2018-06-21T11:08:27.511Z,29.39
2018-06-21T11:09:27.521Z,29.63
2018-06-21T11:10:27.530Z,29.73
2018-06-21T11:11:27.538Z,29.61
2018-06-21T11:12:27.548Z,29.50
2018-06-21T11:13:27.562Z,29.50
2018-06-21T11:14:27.573Z,29.51
2018-06-21T11:15:27.577Z,29.65
2018-06-21T11:16:27.596Z,29.66
2018-06-21T11:17:27.606Z,29.72
2018-06-21T11:18:27.620Z,29.66
2018-06-21T11:19:27.627Z,29.68
2018-06-21T11:20:27.640Z,29.81
2018-06-21T11:21:27.659Z,29.69
2018-06-21T11:22:27.661Z,29.69
2018-06-21T11:23:27.672Z,29.60
2018-06-21T11:24:27.686Z,29.61
2018-06-21T11:25:27.694Z,29.57
2018-06-21T11:26:27.707Z,29.32
2018-06-21T11:27:27.716Z,29.32
2018-06-21T11:28:27.725Z,29.32
2018-06-21T11:29:27.733Z,29.26
2018-06-21T11:30:27.747Z,29.27
2018-06-21T11:31:27.757Z,29.32
2018-06-21T11:32:27.777Z,29.26
2018-06-21T11:33:27.780Z,29.24
2018-06-21T11:34:27.791Z,29.22
2018-06-21T11:35:27.800Z,29.23
2018-06-21T11:36:27.808Z,29.26
2018-06-21T11:37:27.824Z,29.22
2018-06-21T11:38:27.836Z,28.97
2018-06-21T11:39:27.847Z,29.01
2018-06-21T11:40:27.857Z,28.81
2018-06-21T11:41:27.867Z,28.70
2018-06-21T11:42:27.878Z,28.75
2018-06-21T11:43:27.887Z,28.79
2018-06-21T11:44:27.900Z,28.76
2018-06-21T11:45:27.909Z,28.82
2018-06-21T11:46:27.920Z,28.60
2018-06-21T11:47:27.923Z,28.72
2018-06-21T11:48:27.935Z,28.85
2018-06-21T11:49:27.949Z,28.93
2018-06-21T11:50:27.962Z,29.12
2018-06-21T11:51:27.980Z,29.27
2018-06-21T11:52:27.980Z,29.26
2018-06-21T11:53:27.990Z,29.31
2018-06-21T11:54:28.005Z,29.34
2018-06-21T11:55:28.011Z,29.29
2018-06-21T11:56:28.024Z,29.27
2018-06-21T11:57:28.027Z,29.42
2018-06-21T11:58:28.051Z,29.57
2018-06-21T11:59:28.054Z,29.47
2018-06-21T12:00:28.060Z,29.57
2018-06-21T12:01:28.076Z,29.50
2018-06-21T12:02:28.080Z,29.51
2018-06-21T12:03:28.164Z,29.41
2018-06-21T12:04:28.099Z,29.57
2018-06-21T12:05:28.116Z,29.59
2018-06-21T12:06:28.121Z,29.39
2018-06-21T12:07:28.135Z,29.24
2018-06-21T12:08:28.144Z,29.12
2018-06-21T12:09:28.155Z,29.14
2018-06-21T12:10:28.168Z,29.27
2018-06-21T12:11:28.181Z,29.20
2018-06-21T12:12:28.188Z,29.26
2018-06-21T12:13:28.197Z,29.31
2018-06-21T12:14:28.213Z,29.29
2018-06-21T12:15:28.223Z,28.96
2018-06-21T12:16:28.230Z,28.85
2018-06-21T12:17:28.242Z,28.84
2018-06-21T12:18:28.250Z,28.85
2018-06-21T12:19:28.262Z,28.86
2018-06-21T12:20:28.274Z,29.01
2018-06-21T12:21:28.282Z,29.12
2018-06-21T12:22:28.301Z,29.13
2018-06-21T12:23:28.306Z,29.14
2018-06-21T12:24:28.315Z,28.89
2018-06-21T12:25:28.326Z,28.85
2018-06-21T12:26:28.375Z,28.62
2018-06-21T12:27:28.345Z,28.78
2018-06-21T12:28:28.360Z,28.86
2018-06-21T12:29:28.366Z,28.82
2018-06-21T12:30:28.373Z,28.44
2018-06-21T12:31:28.382Z,27.95
2018-06-21T12:32:28.442Z,27.27
2018-06-21T12:33:28.407Z,26.77
2018-06-21T12:34:28.417Z,26.44
2018-06-21T12:35:28.427Z,26.36
2018-06-21T12:36:28.443Z,26.22
2018-06-21T12:37:28.449Z,25.93
2018-06-21T12:38:28.461Z,25.72
2018-06-21T12:39:28.469Z,25.62
2018-06-21T12:40:28.480Z,25.01
2018-06-21T12:41:28.486Z,24.78
2018-06-21T12:42:28.499Z,24.39
2018-06-21T12:43:28.540Z,24.30
2018-06-21T12:44:28.512Z,23.81
2018-06-21T12:45:28.527Z,23.91
2018-06-21T12:46:28.538Z,23.93
2018-06-21T12:47:28.546Z,23.95
2018-06-21T12:48:28.552Z,23.92
2018-06-21T12:49:28.562Z,23.99
2018-06-21T12:50:28.570Z,23.96
2018-06-21T12:51:28.581Z,23.91
2018-06-21T12:52:28.642Z,23.95